YBTL Airport Information

Runway Information
Runway 01 Length 7999 ft width 148 ft
Elevation 18 ft Threshold 0 ft Heading 24
Runway 19 Length 7999 ft Width 148 ft
Elevation 13 ft Threshold 0 ft Heading 204
Runway 07 Length 3609 ft width 98 ft
Elevation 12 ft Threshold 0 ft Heading 74
Runway 25 Length 3609 ft Width 98 ft
Elevation 14 ft Threshold 0 ft Heading 254
Airport Frequencies
Type A/D Name APP/DEP Frequency 126.8 MHZ
Type ATIS Name ATIS Frequency 133.5 MHZ
Type CLD Name CLNC DEL Frequency 128.1 MHZ
Type CTAF Name CTAF Frequency 118.3 MHZ
Type FSS Name BRISBANE C Frequency 120.55 MHZ
Type GND Name GND Frequency 121.8 MHZ
Type OPS Name RAAF AIR O Frequency 897.4 MHZ
Type TWR Name TWR Frequency 118.3 MHZ
Airport Navaids
Type VOR-DME Name Townsville Frequency 114100 KHZ
Type TACAN Name Townsville Frequency 113500 KHZ
Type NDB Name Townsville Frequency 276 KHZ
Airport Weather Information & NOTAM
ADDS - METARS form results

(1905 UTC 06 May 2021)
Data provider http://aviationweather.gov/metar/data/
 
METAR text: YBTL 061900Z AUTO 00000KT 9999 // NCD 14/13 Q1012
Conditions at: YBTL (TOWNSVILLE(CIV/M, AU) observed 1900 UTC 06 May 2021
Temperature: 14.0°C (57°F)
Dewpoint: 13.0°C (55°F) [RH = 94%]
Pressure (altimeter): 29.88 inches Hg (1012.0 mb)
Winds: calm
Visibility: 6 or more miles (10+ km)
Ceiling: at least 12,000 feet AGL
Clouds: sky clear below 12,000 feet AGL
Weather: no significant weather observed at this time

METAR text: YBTL 061830Z AUTO 00000KT 9999 // NCD 14/13 Q1012
Conditions at: YBTL (TOWNSVILLE(CIV/M, AU) observed 1830 UTC 06 May 2021
Temperature: 14.0°C (57°F)
Dewpoint: 13.0°C (55°F) [RH = 94%]
Pressure (altimeter): 29.88 inches Hg (1012.0 mb)
Winds: calm
Visibility: 6 or more miles (10+ km)
Ceiling: at least 12,000 feet AGL
Clouds: sky clear below 12,000 feet AGL
Weather: no significant weather observed at this time

Forecast for: YBTL (TOWNSVILLE(CIV/M, AU)
Text: TAF YBTL 061719Z 0618/0718 18005KT CAVOK
Forecast period: 1800 UTC 06 May 2021 to 0200 UTC 07 May 2021
Forecast type: FROM: standard forecast or significant change
Winds: from the S (180 degrees) at 6 MPH (5 knots; 2.6 m/s)
Visibility: 6 or more miles (10+ km)
Ceiling: unknown
Clouds: missing
Weather: NSW  (no significant weather)
Text: FM070200 05010KT CAVOK
Forecast period: 0200 to 0900 UTC 07 May 2021
Forecast type: FROM: standard forecast or significant change
Winds: from the NE (50 degrees) at 12 MPH (10 knots; 5.1 m/s)
Visibility: 6 or more miles (10+ km)
Ceiling: unknown
Clouds: missing
Weather: NSW  (no significant weather)
Text: FM070900 VRB03KT CAVOK
Forecast period: 0900 to 1800 UTC 07 May 2021
Forecast type: FROM: standard forecast or significant change
Winds: variable direction winds at 3 MPH (3 knots; 1.5 m/s)
Visibility: 6 or more miles (10+ km)
Ceiling: unknown
Clouds: missing
Weather: NSW  (no significant weather)